sensor_id;sensor_type;location;lat;lon;timestamp;temperature;humidity
15364;DHT22;7781;49.690;6.472;2022-10-16T00:01:07;13.50;99.90
15364;DHT22;7781;49.690;6.472;2022-10-16T00:03:39;13.50;99.90
15364;DHT22;7781;49.690;6.472;2022-10-16T00:06:08;13.40;99.90
15364;DHT22;7781;49.690;6.472;2022-10-16T00:08:37;13.40;99.90
15364;DHT22;7781;49.690;6.472;2022-10-16T00:11:06;13.40;99.90
15364;DHT22;7781;49.690;6.472;2022-10-16T00:13:36;13.50;99.90
15364;DHT22;7781;49.690;6.472;2022-10-16T00:16:05;13.40;99.90
15364;DHT22;7781;49.690;6.472;2022-10-16T00:18:33;13.40;99.90
15364;DHT22;7781;49.690;6.472;2022-10-16T00:21:04;13.40;99.90
15364;DHT22;7781;49.690;6.472;2022-10-16T00:23:51;13.50;99.90
15364;DHT22;7781;49.690;6.472;2022-10-16T00:26:20;13.40;99.90
15364;DHT22;7781;49.690;6.472;2022-10-16T00:28:49;13.40;99.90
15364;DHT22;7781;49.690;6.472;2022-10-16T00:31:19;13.40;99.90
15364;DHT22;7781;49.690;6.472;2022-10-16T00:33:48;13.50;99.90
15364;DHT22;7781;49.690;6.472;2022-10-16T00:36:19;13.50;99.90
15364;DHT22;7781;49.690;6.472;2022-10-16T00:38:50;13.60;99.90
15364;DHT22;7781;49.690;6.472;2022-10-16T00:41:20;13.70;99.90
15364;DHT22;7781;49.690;6.472;2022-10-16T00:43:50;13.80;99.90
15364;DHT22;7781;49.690;6.472;2022-10-16T00:46:20;13.90;99.90
15364;DHT22;7781;49.690;6.472;2022-10-16T00:48:51;13.90;99.90
15364;DHT22;7781;49.690;6.472;2022-10-16T00:51:25;14.00;99.90
15364;DHT22;7781;49.690;6.472;2022-10-16T00:53:54;14.00;99.90
15364;DHT22;7781;49.690;6.472;2022-10-16T00:56:22;14.00;99.90
15364;DHT22;7781;49.690;6.472;2022-10-16T00:58:51;14.10;99.90
15364;DHT22;7781;49.690;6.472;2022-10-16T01:01:19;14.00;99.90
15364;DHT22;7781;49.690;6.472;2022-10-16T01:03:47;14.10;99.90
15364;DHT22;7781;49.690;6.472;2022-10-16T01:06:32;14.00;99.90
15364;DHT22;7781;49.690;6.472;2022-10-16T01:09:11;14.10;99.90
15364;DHT22;7781;49.690;6.472;2022-10-16T01:11:45;14.00;99.90
15364;DHT22;7781;49.690;6.472;2022-10-16T01:14:20;14.00;99.90
15364;DHT22;7781;49.690;6.472;2022-10-16T01:16:53;14.00;99.90
15364;DHT22;7781;49.690;6.472;2022-10-16T01:19:47;14.00;99.90
15364;DHT22;7781;49.690;6.472;2022-10-16T01:22:20;14.00;99.90
15364;DHT22;7781;49.690;6.472;2022-10-16T01:24:50;14.00;99.90
15364;DHT22;7781;49.690;6.472;2022-10-16T01:27:22;14.10;99.90
15364;DHT22;7781;49.690;6.472;2022-10-16T01:29:54;14.10;99.90
15364;DHT22;7781;49.690;6.472;2022-10-16T01:32:30;14.10;99.90
15364;DHT22;7781;49.690;6.472;2022-10-16T01:35:04;14.00;99.90
15364;DHT22;7781;49.690;6.472;2022-10-16T01:37:37;14.00;99.90
15364;DHT22;7781;49.690;6.472;2022-10-16T01:40:11;14.00;99.90
15364;DHT22;7781;49.690;6.472;2022-10-16T01:42:44;14.00;99.90
15364;DHT22;7781;49.690;6.472;2022-10-16T01:45:15;14.00;99.90
15364;DHT22;7781;49.690;6.472;2022-10-16T01:47:46;14.00;99.90
15364;DHT22;7781;49.690;6.472;2022-10-16T01:50:18;14.00;99.90
15364;DHT22;7781;49.690;6.472;2022-10-16T01:52:51;14.00;99.90
15364;DHT22;7781;49.690;6.472;2022-10-16T01:55:25;14.10;99.90
15364;DHT22;7781;49.690;6.472;2022-10-16T01:57:55;14.00;99.90
15364;DHT22;7781;49.690;6.472;2022-10-16T02:00:24;14.00;99.90
15364;DHT22;7781;49.690;6.472;2022-10-16T02:02:55;14.00;99.90
15364;DHT22;7781;49.690;6.472;2022-10-16T02:05:30;13.90;99.90
15364;DHT22;7781;49.690;6.472;2022-10-16T02:07:58;13.90;99.90
15364;DHT22;7781;49.690;6.472;2022-10-16T02:10:31;13.90;99.90
15364;DHT22;7781;49.690;6.472;2022-10-16T02:13:06;13.80;99.90
15364;DHT22;7781;49.690;6.472;2022-10-16T02:15:35;13.90;99.90
15364;DHT22;7781;49.690;6.472;2022-10-16T02:18:04;13.90;99.90
15364;DHT22;7781;49.690;6.472;2022-10-16T02:20:36;13.90;99.90
15364;DHT22;7781;49.690;6.472;2022-10-16T02:23:07;13.90;99.90
15364;DHT22;7781;49.690;6.472;2022-10-16T02:25:40;13.90;99.90
15364;DHT22;7781;49.690;6.472;2022-10-16T02:28:16;13.90;99.90
15364;DHT22;7781;49.690;6.472;2022-10-16T02:30:50;13.90;99.90
15364;DHT22;7781;49.690;6.472;2022-10-16T02:33:19;14.00;99.90
15364;DHT22;7781;49.690;6.472;2022-10-16T02:35:50;13.90;99.90
15364;DHT22;7781;49.690;6.472;2022-10-16T02:38:20;14.00;99.90
15364;DHT22;7781;49.690;6.472;2022-10-16T02:40:49;14.00;99.90
15364;DHT22;7781;49.690;6.472;2022-10-16T02:43:19;14.00;99.90
15364;DHT22;7781;49.690;6.472;2022-10-16T02:45:47;14.00;99.90
15364;DHT22;7781;49.690;6.472;2022-10-16T02:48:14;14.00;99.90
15364;DHT22;7781;49.690;6.472;2022-10-16T02:50:42;14.00;99.90
15364;DHT22;7781;49.690;6.472;2022-10-16T02:53:10;14.00;99.90
15364;DHT22;7781;49.690;6.472;2022-10-16T02:55:38;14.00;99.90
15364;DHT22;7781;49.690;6.472;2022-10-16T02:58:06;14.00;99.90
15364;DHT22;7781;49.690;6.472;2022-10-16T03:00:36;14.00;99.90
15364;DHT22;7781;49.690;6.472;2022-10-16T03:03:04;14.00;99.90
15364;DHT22;7781;49.690;6.472;2022-10-16T03:05:32;14.00;99.90
15364;DHT22;7781;49.690;6.472;2022-10-16T03:08:00;14.00;99.90
15364;DHT22;7781;49.690;6.472;2022-10-16T03:10:28;14.00;99.90
15364;DHT22;7781;49.690;6.472;2022-10-16T03:12:56;14.00;99.90
15364;DHT22;7781;49.690;6.472;2022-10-16T03:15:24;14.00;99.90
15364;DHT22;7781;49.690;6.472;2022-10-16T03:17:53;14.00;99.90
15364;DHT22;7781;49.690;6.472;2022-10-16T03:20:21;14.00;99.90
15364;DHT22;7781;49.690;6.472;2022-10-16T03:22:50;14.00;99.90
15364;DHT22;7781;49.690;6.472;2022-10-16T03:25:18;14.00;99.90
15364;DHT22;7781;49.690;6.472;2022-10-16T03:27:46;14.00;99.90
15364;DHT22;7781;49.690;6.472;2022-10-16T03:30:14;14.00;99.90
15364;DHT22;7781;49.690;6.472;2022-10-16T03:32:43;14.00;99.90
15364;DHT22;7781;49.690;6.472;2022-10-16T03:35:13;14.00;99.90
15364;DHT22;7781;49.690;6.472;2022-10-16T03:37:41;14.00;99.90
15364;DHT22;7781;49.690;6.472;2022-10-16T03:40:10;14.00;99.90
15364;DHT22;7781;49.690;6.472;2022-10-16T03:42:38;14.00;99.90
15364;DHT22;7781;49.690;6.472;2022-10-16T03:45:06;14.00;99.90
15364;DHT22;7781;49.690;6.472;2022-10-16T03:47:34;14.00;99.90
15364;DHT22;7781;49.690;6.472;2022-10-16T03:50:03;13.90;99.90
15364;DHT22;7781;49.690;6.472;2022-10-16T03:52:32;14.00;99.90
15364;DHT22;7781;49.690;6.472;2022-10-16T03:55:00;13.90;99.90
15364;DHT22;7781;49.690;6.472;2022-10-16T03:57:28;13.90;99.90
15364;DHT22;7781;49.690;6.472;2022-10-16T03:59:56;14.00;99.90
15364;DHT22;7781;49.690;6.472;2022-10-16T04:02:24;14.00;99.90
15364;DHT22;7781;49.690;6.472;2022-10-16T04:04:52;13.90;99.90
15364;DHT22;7781;49.690;6.472;2022-10-16T04:07:20;13.90;99.90
15364;DHT22;7781;49.690;6.472;2022-10-16T04:09:50;13.90;99.90
15364;DHT22;7781;49.690;6.472;2022-10-16T04:12:18;13.90;99.90
15364;DHT22;7781;49.690;6.472;2022-10-16T04:14:46;13.90;99.90
15364;DHT22;7781;49.690;6.472;2022-10-16T04:17:14;13.90;99.90
15364;DHT22;7781;49.690;6.472;2022-10-16T04:19:42;13.90;99.90
15364;DHT22;7781;49.690;6.472;2022-10-16T04:22:11;13.90;99.90
15364;DHT22;7781;49.690;6.472;2022-10-16T04:24:39;13.90;99.90
15364;DHT22;7781;49.690;6.472;2022-10-16T04:27:09;13.90;99.90
15364;DHT22;7781;49.690;6.472;2022-10-16T04:29:37;13.90;99.90
15364;DHT22;7781;49.690;6.472;2022-10-16T04:32:05;13.90;99.90
15364;DHT22;7781;49.690;6.472;2022-10-16T04:34:33;13.90;99.90
15364;DHT22;7781;49.690;6.472;2022-10-16T04:37:01;13.90;99.90
15364;DHT22;7781;49.690;6.472;2022-10-16T04:39:29;13.90;99.90
15364;DHT22;7781;49.690;6.472;2022-10-16T04:41:57;13.90;99.90
15364;DHT22;7781;49.690;6.472;2022-10-16T04:44:26;13.90;99.90
15364;DHT22;7781;49.690;6.472;2022-10-16T04:46:54;14.00;99.90
15364;DHT22;7781;49.690;6.472;2022-10-16T04:49:22;14.00;99.90
15364;DHT22;7781;49.690;6.472;2022-10-16T04:51:50;14.00;99.90
15364;DHT22;7781;49.690;6.472;2022-10-16T04:54:18;13.90;99.90
15364;DHT22;7781;49.690;6.472;2022-10-16T04:56:47;14.00;99.90
15364;DHT22;7781;49.690;6.472;2022-10-16T04:59:18;14.00;99.90
15364;DHT22;7781;49.690;6.472;2022-10-16T05:01:48;13.90;99.90
15364;DHT22;7781;49.690;6.472;2022-10-16T05:04:16;13.90;99.90
15364;DHT22;7781;49.690;6.472;2022-10-16T05:06:44;13.90;99.90
15364;DHT22;7781;49.690;6.472;2022-10-16T05:09:12;13.90;99.90
15364;DHT22;7781;49.690;6.472;2022-10-16T05:11:41;13.90;99.90
15364;DHT22;7781;49.690;6.472;2022-10-16T05:14:09;13.80;99.90
15364;DHT22;7781;49.690;6.472;2022-10-16T05:16:42;13.80;99.90
15364;DHT22;7781;49.690;6.472;2022-10-16T05:19:11;13.80;99.90
15364;DHT22;7781;49.690;6.472;2022-10-16T05:21:55;13.80;99.90
15364;DHT22;7781;49.690;6.472;2022-10-16T05:24:23;13.80;99.90
15364;DHT22;7781;49.690;6.472;2022-10-16T05:26:51;13.80;99.90
15364;DHT22;7781;49.690;6.472;2022-10-16T05:29:19;13.70;99.90
15364;DHT22;7781;49.690;6.472;2022-10-16T05:31:50;13.80;99.90
15364;DHT22;7781;49.690;6.472;2022-10-16T05:34:20;13.80;99.90
15364;DHT22;7781;49.690;6.472;2022-10-16T05:36:48;13.80;99.90
15364;DHT22;7781;49.690;6.472;2022-10-16T05:39:16;13.70;99.90
15364;DHT22;7781;49.690;6.472;2022-10-16T05:41:45;13.70;99.90
15364;DHT22;7781;49.690;6.472;2022-10-16T05:44:13;13.70;99.90
15364;DHT22;7781;49.690;6.472;2022-10-16T05:46:41;13.70;99.90
15364;DHT22;7781;49.690;6.472;2022-10-16T05:49:09;13.70;99.90
15364;DHT22;7781;49.690;6.472;2022-10-16T05:51:39;13.70;99.90
15364;DHT22;7781;49.690;6.472;2022-10-16T05:54:09;13.70;99.90
15364;DHT22;7781;49.690;6.472;2022-10-16T05:56:37;13.70;99.90
15364;DHT22;7781;49.690;6.472;2022-10-16T05:59:05;13.70;99.90
15364;DHT22;7781;49.690;6.472;2022-10-16T06:01:33;13.60;99.90
15364;DHT22;7781;49.690;6.472;2022-10-16T06:04:02;13.60;99.90
15364;DHT22;7781;49.690;6.472;2022-10-16T06:06:30;13.70;99.90
15364;DHT22;7781;49.690;6.472;2022-10-16T06:09:00;13.60;99.90
15364;DHT22;7781;49.690;6.472;2022-10-16T06:11:30;13.60;99.90
15364;DHT22;7781;49.690;6.472;2022-10-16T06:14:00;13.60;99.90
15364;DHT22;7781;49.690;6.472;2022-10-16T06:16:29;13.60;99.90
15364;DHT22;7781;49.690;6.472;2022-10-16T06:18:57;13.60;99.90
15364;DHT22;7781;49.690;6.472;2022-10-16T06:21:28;13.60;99.90
15364;DHT22;7781;49.690;6.472;2022-10-16T06:23:56;13.60;99.90
15364;DHT22;7781;49.690;6.472;2022-10-16T06:26:27;13.60;99.90
15364;DHT22;7781;49.690;6.472;2022-10-16T06:28:56;13.60;99.90
15364;DHT22;7781;49.690;6.472;2022-10-16T06:31:25;13.70;99.90
15364;DHT22;7781;49.690;6.472;2022-10-16T06:33:56;13.70;99.90
15364;DHT22;7781;49.690;6.472;2022-10-16T06:36:25;13.70;99.90
15364;DHT22;7781;49.690;6.472;2022-10-16T06:38:54;13.70;99.90
15364;DHT22;7781;49.690;6.472;2022-10-16T06:41:23;13.70;99.90
15364;DHT22;7781;49.690;6.472;2022-10-16T06:43:52;13.70;99.90
15364;DHT22;7781;49.690;6.472;2022-10-16T06:46:23;13.70;99.90
15364;DHT22;7781;49.690;6.472;2022-10-16T06:48:52;13.80;99.90
15364;DHT22;7781;49.690;6.472;2022-10-16T06:51:22;13.70;99.90
15364;DHT22;7781;49.690;6.472;2022-10-16T06:53:51;13.80;99.90
15364;DHT22;7781;49.690;6.472;2022-10-16T06:56:31;13.80;99.90
15364;DHT22;7781;49.690;6.472;2022-10-16T06:59:01;13.80;99.90
15364;DHT22;7781;49.690;6.472;2022-10-16T07:01:29;13.80;99.90
15364;DHT22;7781;49.690;6.472;2022-10-16T07:03:58;13.80;99.90
15364;DHT22;7781;49.690;6.472;2022-10-16T07:06:26;13.90;99.90
15364;DHT22;7781;49.690;6.472;2022-10-16T07:08:55;13.90;99.90
15364;DHT22;7781;49.690;6.472;2022-10-16T07:11:23;13.90;99.90
15364;DHT22;7781;49.690;6.472;2022-10-16T07:13:52;14.00;99.90
15364;DHT22;7781;49.690;6.472;2022-10-16T07:16:25;14.00;99.90
15364;DHT22;7781;49.690;6.472;2022-10-16T07:18:54;14.10;99.90
15364;DHT22;7781;49.690;6.472;2022-10-16T07:21:27;14.10;99.90
15364;DHT22;7781;49.690;6.472;2022-10-16T07:23:57;14.10;99.90
15364;DHT22;7781;49.690;6.472;2022-10-16T07:26:26;14.10;99.90
15364;DHT22;7781;49.690;6.472;2022-10-16T07:28:54;14.10;99.90
15364;DHT22;7781;49.690;6.472;2022-10-16T07:31:25;14.20;99.90
15364;DHT22;7781;49.690;6.472;2022-10-16T07:33:53;14.20;99.90
15364;DHT22;7781;49.690;6.472;2022-10-16T07:36:21;14.20;99.90
15364;DHT22;7781;49.690;6.472;2022-10-16T07:38:49;14.30;99.90
15364;DHT22;7781;49.690;6.472;2022-10-16T07:41:22;14.30;99.90
15364;DHT22;7781;49.690;6.472;2022-10-16T07:43:52;14.30;99.90
15364;DHT22;7781;49.690;6.472;2022-10-16T07:46:22;14.30;99.90
15364;DHT22;7781;49.690;6.472;2022-10-16T07:48:52;14.30;99.90
15364;DHT22;7781;49.690;6.472;2022-10-16T07:51:23;14.40;99.90
15364;DHT22;7781;49.690;6.472;2022-10-16T07:53:52;14.40;99.90
15364;DHT22;7781;49.690;6.472;2022-10-16T07:56:21;14.40;99.90
15364;DHT22;7781;49.690;6.472;2022-10-16T07:58:50;14.40;99.90
15364;DHT22;7781;49.690;6.472;2022-10-16T08:01:19;14.40;99.90
15364;DHT22;7781;49.690;6.472;2022-10-16T08:03:48;14.40;99.90
15364;DHT22;7781;49.690;6.472;2022-10-16T08:06:20;14.40;99.90
15364;DHT22;7781;49.690;6.472;2022-10-16T08:08:54;14.40;99.90
15364;DHT22;7781;49.690;6.472;2022-10-16T08:11:23;14.50;99.90
15364;DHT22;7781;49.690;6.472;2022-10-16T08:13:51;14.50;99.90
15364;DHT22;7781;49.690;6.472;2022-10-16T08:16:19;14.50;99.90
15364;DHT22;7781;49.690;6.472;2022-10-16T08:18:54;14.50;99.90
15364;DHT22;7781;49.690;6.472;2022-10-16T08:21:23;14.50;99.90
15364;DHT22;7781;49.690;6.472;2022-10-16T08:23:53;14.50;99.90
15364;DHT22;7781;49.690;6.472;2022-10-16T08:26:25;14.50;99.90
15364;DHT22;7781;49.690;6.472;2022-10-16T08:28:54;14.50;99.90
15364;DHT22;7781;49.690;6.472;2022-10-16T08:31:24;14.50;99.90
15364;DHT22;7781;49.690;6.472;2022-10-16T08:33:53;14.60;99.90
15364;DHT22;7781;49.690;6.472;2022-10-16T08:36:23;14.60;99.90
15364;DHT22;7781;49.690;6.472;2022-10-16T08:38:51;14.60;99.90
15364;DHT22;7781;49.690;6.472;2022-10-16T08:41:36;14.70;99.90
15364;DHT22;7781;49.690;6.472;2022-10-16T08:44:27;14.70;99.90
15364;DHT22;7781;49.690;6.472;2022-10-16T08:47:02;14.70;99.90
15364;DHT22;7781;49.690;6.472;2022-10-16T08:49:32;14.80;99.90
15364;DHT22;7781;49.690;6.472;2022-10-16T08:52:01;14.80;99.90
15364;DHT22;7781;49.690;6.472;2022-10-16T08:54:32;14.90;99.90
15364;DHT22;7781;49.690;6.472;2022-10-16T08:57:09;14.90;99.90
15364;DHT22;7781;49.690;6.472;2022-10-16T08:59:37;15.00;99.90
15364;DHT22;7781;49.690;6.472;2022-10-16T09:02:23;15.10;99.90
15364;DHT22;7781;49.690;6.472;2022-10-16T09:05:24;15.10;99.90
15364;DHT22;7781;49.690;6.472;2022-10-16T09:08:03;15.20;99.90
15364;DHT22;7781;49.690;6.472;2022-10-16T09:10:45;15.10;99.90
15364;DHT22;7781;49.690;6.472;2022-10-16T09:13:23;15.10;99.90
15364;DHT22;7781;49.690;6.472;2022-10-16T09:15:58;15.00;99.90
15364;DHT22;7781;49.690;6.472;2022-10-16T09:18:33;15.10;99.90
15364;DHT22;7781;49.690;6.472;2022-10-16T09:21:10;15.20;99.90
15364;DHT22;7781;49.690;6.472;2022-10-16T09:23:42;15.30;99.90
15364;DHT22;7781;49.690;6.472;2022-10-16T09:26:13;15.40;99.90
15364;DHT22;7781;49.690;6.472;2022-10-16T09:28:41;15.40;99.90
15364;DHT22;7781;49.690;6.472;2022-10-16T09:31:15;15.50;99.90
15364;DHT22;7781;49.690;6.472;2022-10-16T09:33:47;15.60;99.90
15364;DHT22;7781;49.690;6.472;2022-10-16T09:36:17;15.60;99.90
15364;DHT22;7781;49.690;6.472;2022-10-16T09:38:47;15.70;99.90
15364;DHT22;7781;49.690;6.472;2022-10-16T09:41:19;15.80;99.90
15364;DHT22;7781;49.690;6.472;2022-10-16T09:43:52;15.90;99.90
15364;DHT22;7781;49.690;6.472;2022-10-16T09:46:27;15.90;99.90
15364;DHT22;7781;49.690;6.472;2022-10-16T09:48:58;16.00;99.90
15364;DHT22;7781;49.690;6.472;2022-10-16T09:51:28;16.10;99.90
15364;DHT22;7781;49.690;6.472;2022-10-16T09:54:00;16.20;99.90
15364;DHT22;7781;49.690;6.472;2022-10-16T09:56:30;16.30;99.90
15364;DHT22;7781;49.690;6.472;2022-10-16T09:59:01;16.50;99.90
15364;DHT22;7781;49.690;6.472;2022-10-16T10:01:35;16.60;99.90
15364;DHT22;7781;49.690;6.472;2022-10-16T10:04:06;16.70;99.90
15364;DHT22;7781;49.690;6.472;2022-10-16T10:06:35;16.80;99.90
15364;DHT22;7781;49.690;6.472;2022-10-16T10:09:16;16.80;99.90
15364;DHT22;7781;49.690;6.472;2022-10-16T10:11:49;16.90;99.90
15364;DHT22;7781;49.690;6.472;2022-10-16T10:14:27;16.90;99.90
15364;DHT22;7781;49.690;6.472;2022-10-16T10:17:11;17.00;99.90
15364;DHT22;7781;49.690;6.472;2022-10-16T10:19:41;17.10;99.90
15364;DHT22;7781;49.690;6.472;2022-10-16T10:22:18;17.20;99.90
15364;DHT22;7781;49.690;6.472;2022-10-16T10:24:56;17.20;99.90
15364;DHT22;7781;49.690;6.472;2022-10-16T10:27:32;17.20;99.90
15364;DHT22;7781;49.690;6.472;2022-10-16T10:30:07;17.20;99.90
15364;DHT22;7781;49.690;6.472;2022-10-16T10:32:41;17.20;99.90
15364;DHT22;7781;49.690;6.472;2022-10-16T10:35:17;17.20;99.90
15364;DHT22;7781;49.690;6.472;2022-10-16T10:37:57;17.20;99.90
15364;DHT22;7781;49.690;6.472;2022-10-16T10:40:39;17.30;99.90
15364;DHT22;7781;49.690;6.472;2022-10-16T10:43:19;17.30;99.90
15364;DHT22;7781;49.690;6.472;2022-10-16T10:45:54;17.30;99.90
15364;DHT22;7781;49.690;6.472;2022-10-16T10:48:45;17.30;99.90
15364;DHT22;7781;49.690;6.472;2022-10-16T10:51:21;17.30;99.90
15364;DHT22;7781;49.690;6.472;2022-10-16T10:53:58;17.20;99.90
15364;DHT22;7781;49.690;6.472;2022-10-16T10:56:43;17.20;99.90
15364;DHT22;7781;49.690;6.472;2022-10-16T10:59:52;17.20;99.90
15364;DHT22;7781;49.690;6.472;2022-10-16T11:02:28;17.20;99.90
15364;DHT22;7781;49.690;6.472;2022-10-16T11:05:26;17.20;99.90
15364;DHT22;7781;49.690;6.472;2022-10-16T11:07:59;17.10;99.90
15364;DHT22;7781;49.690;6.472;2022-10-16T11:10:33;17.10;99.90
15364;DHT22;7781;49.690;6.472;2022-10-16T11:13:11;17.10;99.90
15364;DHT22;7781;49.690;6.472;2022-10-16T11:15:44;17.10;99.90
15364;DHT22;7781;49.690;6.472;2022-10-16T11:18:18;17.20;99.90
15364;DHT22;7781;49.690;6.472;2022-10-16T11:20:51;17.30;99.90
15364;DHT22;7781;49.690;6.472;2022-10-16T11:23:26;17.30;99.90
15364;DHT22;7781;49.690;6.472;2022-10-16T11:25:57;17.30;99.90
15364;DHT22;7781;49.690;6.472;2022-10-16T11:28:32;17.30;99.90
15364;DHT22;7781;49.690;6.472;2022-10-16T11:31:08;17.30;99.90
15364;DHT22;7781;49.690;6.472;2022-10-16T11:33:41;17.30;99.90
15364;DHT22;7781;49.690;6.472;2022-10-16T11:36:14;17.20;99.90
15364;DHT22;7781;49.690;6.472;2022-10-16T11:38:51;17.30;99.90
15364;DHT22;7781;49.690;6.472;2022-10-16T11:41:27;17.30;99.90
15364;DHT22;7781;49.690;6.472;2022-10-16T11:44:09;17.30;99.90
15364;DHT22;7781;49.690;6.472;2022-10-16T11:46:42;17.30;99.90
15364;DHT22;7781;49.690;6.472;2022-10-16T11:49:27;17.40;99.90
15364;DHT22;7781;49.690;6.472;2022-10-16T11:52:04;17.40;99.90
15364;DHT22;7781;49.690;6.472;2022-10-16T11:54:39;17.40;99.90
15364;DHT22;7781;49.690;6.472;2022-10-16T11:57:12;17.30;99.90
15364;DHT22;7781;49.690;6.472;2022-10-16T11:59:46;17.30;99.90
15364;DHT22;7781;49.690;6.472;2022-10-16T12:02:32;17.30;99.90
15364;DHT22;7781;49.690;6.472;2022-10-16T12:05:12;17.30;99.90
15364;DHT22;7781;49.690;6.472;2022-10-16T12:07:47;17.30;99.90
15364;DHT22;7781;49.690;6.472;2022-10-16T12:10:21;17.30;99.90
15364;DHT22;7781;49.690;6.472;2022-10-16T12:12:54;17.30;99.90
15364;DHT22;7781;49.690;6.472;2022-10-16T12:15:26;17.20;99.90
15364;DHT22;7781;49.690;6.472;2022-10-16T12:18:21;17.20;99.90
15364;DHT22;7781;49.690;6.472;2022-10-16T12:20:55;17.30;99.90
15364;DHT22;7781;49.690;6.472;2022-10-16T12:23:26;17.30;99.90
15364;DHT22;7781;49.690;6.472;2022-10-16T12:25:55;17.30;99.90
15364;DHT22;7781;49.690;6.472;2022-10-16T12:28:27;17.30;99.90
15364;DHT22;7781;49.690;6.472;2022-10-16T12:30:58;17.30;99.90
15364;DHT22;7781;49.690;6.472;2022-10-16T12:33:28;17.30;99.90
15364;DHT22;7781;49.690;6.472;2022-10-16T12:35:59;17.30;99.90
15364;DHT22;7781;49.690;6.472;2022-10-16T12:38:28;17.30;99.90
15364;DHT22;7781;49.690;6.472;2022-10-16T12:41:00;17.40;99.90
15364;DHT22;7781;49.690;6.472;2022-10-16T12:43:39;17.40;99.90
15364;DHT22;7781;49.690;6.472;2022-10-16T12:46:37;17.40;99.90
15364;DHT22;7781;49.690;6.472;2022-10-16T12:49:19;17.40;99.90
15364;DHT22;7781;49.690;6.472;2022-10-16T12:51:49;17.40;99.90
15364;DHT22;7781;49.690;6.472;2022-10-16T12:54:19;17.40;99.90
15364;DHT22;7781;49.690;6.472;2022-10-16T12:57:10;17.40;99.90
15364;DHT22;7781;49.690;6.472;2022-10-16T12:59:51;17.40;99.90
15364;DHT22;7781;49.690;6.472;2022-10-16T13:02:46;17.50;99.90
15364;DHT22;7781;49.690;6.472;2022-10-16T13:05:27;17.50;99.90
15364;DHT22;7781;49.690;6.472;2022-10-16T13:08:11;17.60;99.90
15364;DHT22;7781;49.690;6.472;2022-10-16T13:10:51;17.70;99.90
15364;DHT22;7781;49.690;6.472;2022-10-16T13:16:33;17.80;99.90
15364;DHT22;7781;49.690;6.472;2022-10-16T13:19:15;17.90;99.90
15364;DHT22;7781;49.690;6.472;2022-10-16T13:21:54;17.90;99.90
15364;DHT22;7781;49.690;6.472;2022-10-16T13:24:38;17.90;99.90
15364;DHT22;7781;49.690;6.472;2022-10-16T13:27:14;17.90;99.90
15364;DHT22;7781;49.690;6.472;2022-10-16T13:29:52;18.00;99.90
15364;DHT22;7781;49.690;6.472;2022-10-16T13:32:22;18.00;99.90
15364;DHT22;7781;49.690;6.472;2022-10-16T13:34:51;18.00;99.90
15364;DHT22;7781;49.690;6.472;2022-10-16T13:37:22;18.00;99.90
15364;DHT22;7781;49.690;6.472;2022-10-16T13:39:51;18.00;99.90
15364;DHT22;7781;49.690;6.472;2022-10-16T13:42:29;18.10;99.90
15364;DHT22;7781;49.690;6.472;2022-10-16T13:44:57;18.00;99.90
15364;DHT22;7781;49.690;6.472;2022-10-16T13:47:27;18.00;99.90
15364;DHT22;7781;49.690;6.472;2022-10-16T13:50:03;18.00;99.90
15364;DHT22;7781;49.690;6.472;2022-10-16T13:52:32;17.90;99.90
15364;DHT22;7781;49.690;6.472;2022-10-16T13:55:00;17.80;99.90
15364;DHT22;7781;49.690;6.472;2022-10-16T13:57:28;17.80;99.90
15364;DHT22;7781;49.690;6.472;2022-10-16T13:59:56;17.80;99.90
15364;DHT22;7781;49.690;6.472;2022-10-16T14:02:27;17.70;99.90
15364;DHT22;7781;49.690;6.472;2022-10-16T14:04:57;17.70;99.90
15364;DHT22;7781;49.690;6.472;2022-10-16T14:07:28;17.70;99.90
15364;DHT22;7781;49.690;6.472;2022-10-16T14:10:02;17.70;99.90
15364;DHT22;7781;49.690;6.472;2022-10-16T14:12:30;17.70;99.90
15364;DHT22;7781;49.690;6.472;2022-10-16T14:14:59;17.70;99.90
15364;DHT22;7781;49.690;6.472;2022-10-16T14:17:29;17.70;99.90
15364;DHT22;7781;49.690;6.472;2022-10-16T14:19:59;17.70;99.90
15364;DHT22;7781;49.690;6.472;2022-10-16T14:22:35;17.70;99.90
15364;DHT22;7781;49.690;6.472;2022-10-16T14:25:20;17.60;99.90
15364;DHT22;7781;49.690;6.472;2022-10-16T14:27:58;17.70;99.90
15364;DHT22;7781;49.690;6.472;2022-10-16T14:30:33;17.70;99.90
15364;DHT22;7781;49.690;6.472;2022-10-16T14:33:03;17.80;99.90
15364;DHT22;7781;49.690;6.472;2022-10-16T14:35:33;17.80;99.90
15364;DHT22;7781;49.690;6.472;2022-10-16T14:38:04;17.90;99.90
15364;DHT22;7781;49.690;6.472;2022-10-16T14:40:35;17.90;99.90
15364;DHT22;7781;49.690;6.472;2022-10-16T14:43:05;17.90;99.90
15364;DHT22;7781;49.690;6.472;2022-10-16T14:45:34;17.90;99.90
15364;DHT22;7781;49.690;6.472;2022-10-16T14:48:04;17.80;99.90
15364;DHT22;7781;49.690;6.472;2022-10-16T14:50:33;17.80;99.90
15364;DHT22;7781;49.690;6.472;2022-10-16T14:53:08;17.80;99.90
15364;DHT22;7781;49.690;6.472;2022-10-16T14:55:39;17.80;99.90
15364;DHT22;7781;49.690;6.472;2022-10-16T14:58:12;17.80;99.90
15364;DHT22;7781;49.690;6.472;2022-10-16T15:00:41;17.80;99.90
15364;DHT22;7781;49.690;6.472;2022-10-16T15:03:09;17.80;99.90
15364;DHT22;7781;49.690;6.472;2022-10-16T15:05:37;17.80;99.90
15364;DHT22;7781;49.690;6.472;2022-10-16T15:08:07;17.70;99.90
15364;DHT22;7781;49.690;6.472;2022-10-16T15:10:38;17.70;99.90
15364;DHT22;7781;49.690;6.472;2022-10-16T15:13:11;17.70;99.90
15364;DHT22;7781;49.690;6.472;2022-10-16T15:15:42;17.70;99.90
15364;DHT22;7781;49.690;6.472;2022-10-16T15:18:10;17.70;99.90
15364;DHT22;7781;49.690;6.472;2022-10-16T15:20:39;17.70;99.90
15364;DHT22;7781;49.690;6.472;2022-10-16T15:23:14;17.70;99.90
15364;DHT22;7781;49.690;6.472;2022-10-16T15:25:44;17.70;99.90
15364;DHT22;7781;49.690;6.472;2022-10-16T15:28:14;17.70;99.90
15364;DHT22;7781;49.690;6.472;2022-10-16T15:30:42;17.70;99.90
15364;DHT22;7781;49.690;6.472;2022-10-16T15:33:14;17.70;99.90
15364;DHT22;7781;49.690;6.472;2022-10-16T15:35:42;17.70;99.90
15364;DHT22;7781;49.690;6.472;2022-10-16T15:38:15;17.70;99.90
15364;DHT22;7781;49.690;6.472;2022-10-16T15:40:44;17.70;99.90
15364;DHT22;7781;49.690;6.472;2022-10-16T15:43:11;17.70;99.90
15364;DHT22;7781;49.690;6.472;2022-10-16T15:45:40;17.70;99.90
15364;DHT22;7781;49.690;6.472;2022-10-16T15:48:10;17.70;99.90
15364;DHT22;7781;49.690;6.472;2022-10-16T15:50:40;17.70;99.90
15364;DHT22;7781;49.690;6.472;2022-10-16T15:53:15;17.70;99.90
15364;DHT22;7781;49.690;6.472;2022-10-16T15:55:43;17.70;99.90
15364;DHT22;7781;49.690;6.472;2022-10-16T15:58:11;17.60;99.90
15364;DHT22;7781;49.690;6.472;2022-10-16T16:00:39;17.60;99.90
15364;DHT22;7781;49.690;6.472;2022-10-16T16:03:07;17.60;99.90
15364;DHT22;7781;49.690;6.472;2022-10-16T16:05:37;17.60;99.90
15364;DHT22;7781;49.690;6.472;2022-10-16T16:08:12;17.60;99.90
15364;DHT22;7781;49.690;6.472;2022-10-16T16:10:41;17.50;99.90
15364;DHT22;7781;49.690;6.472;2022-10-16T16:13:09;17.40;99.90
15364;DHT22;7781;49.690;6.472;2022-10-16T16:15:38;17.40;99.90
15364;DHT22;7781;49.690;6.472;2022-10-16T16:18:07;17.20;99.90